createdAt,value
2019-01-27T00:02:26.380Z,1.36
2019-01-27T00:04:57.830Z,1.43
2019-01-27T00:07:29.260Z,1.45
2019-01-27T00:10:00.692Z,1.32
2019-01-27T00:12:32.319Z,1.30
2019-01-27T00:15:04.831Z,1.33
2019-01-27T00:17:36.774Z,1.30
2019-01-27T00:20:10.202Z,1.32
2019-01-27T00:22:41.710Z,1.34
2019-01-27T00:25:13.046Z,1.25
2019-01-27T00:27:44.476Z,1.27
2019-01-27T00:30:21.761Z,1.22
2019-01-27T00:32:53.160Z,1.12
2019-01-27T00:35:26.061Z,1.19
2019-01-27T00:37:57.528Z,1.20
2019-01-27T00:40:28.969Z,0.96
2019-01-27T00:43:00.395Z,1.06
2019-01-27T00:45:31.836Z,1.22
2019-01-27T00:48:03.264Z,1.15
2019-01-27T00:50:34.804Z,1.23
2019-01-27T00:53:06.333Z,1.22
2019-01-27T00:55:37.780Z,1.15
2019-01-27T00:58:09.306Z,1.13
2019-01-27T01:00:42.840Z,1.22
2019-01-27T01:03:14.248Z,1.13
2019-01-27T01:05:48.854Z,1.07
2019-01-27T01:08:22.601Z,1.31
2019-01-27T01:10:54.031Z,1.18
2019-01-27T01:13:25.459Z,1.30
2019-01-27T01:15:56.914Z,1.29
2019-01-27T01:18:28.301Z,1.34
2019-01-27T01:20:59.749Z,1.33
2019-01-27T01:23:31.173Z,1.39
2019-01-27T01:26:02.611Z,1.25
2019-01-27T01:28:34.104Z,1.32
2019-01-27T01:31:05.804Z,1.27
2019-01-27T01:33:40.336Z,1.21
2019-01-27T01:36:11.822Z,1.25
2019-01-27T01:38:43.220Z,1.24
2019-01-27T01:41:14.752Z,1.23
2019-01-27T01:43:46.200Z,1.23
2019-01-27T01:46:17.644Z,1.18
2019-01-27T01:48:52.134Z,1.16
2019-01-27T01:51:23.572Z,1.22
2019-01-27T01:53:54.904Z,1.20
2019-01-27T01:56:26.354Z,1.21
2019-01-27T01:58:57.771Z,1.19
2019-01-27T02:01:29.198Z,1.18
2019-01-27T02:04:00.625Z,1.16
2019-01-27T02:06:34.266Z,1.15
2019-01-27T02:09:10.747Z,0.95
2019-01-27T02:11:42.172Z,1.10
2019-01-27T02:14:13.616Z,1.16
2019-01-27T02:16:45.209Z,1.18
2019-01-27T02:19:16.586Z,1.21
2019-01-27T02:21:49.282Z,1.20
2019-01-27T02:24:21.210Z,1.19
2019-01-27T02:26:52.628Z,1.15
2019-01-27T02:29:24.037Z,1.13
2019-01-27T02:31:55.504Z,1.07
2019-01-27T02:34:26.836Z,0.96
2019-01-27T02:36:58.300Z,0.99
2019-01-27T02:39:30.019Z,1.21
2019-01-27T02:42:01.464Z,1.16
2019-01-27T02:44:32.893Z,0.98
2019-01-27T02:47:04.561Z,1.10
2019-01-27T02:49:35.960Z,1.17
2019-01-27T02:52:07.488Z,1.19
2019-01-27T02:54:38.887Z,1.17
2019-01-27T02:57:10.343Z,1.32
2019-01-27T02:59:41.953Z,1.07
2019-01-27T03:02:13.397Z,1.13
2019-01-27T03:04:44.832Z,1.15
2019-01-27T03:07:36.112Z,1.18
2019-01-27T03:10:12.808Z,1.23
2019-01-27T03:12:44.321Z,1.18
2019-01-27T03:15:17.655Z,1.15
2019-01-27T03:17:49.092Z,1.02
2019-01-27T03:20:20.505Z,1.03
2019-01-27T03:22:54.012Z,1.01
2019-01-27T03:25:25.442Z,1.10
2019-01-27T03:27:58.484Z,0.99
2019-01-27T03:30:32.253Z,1.01
2019-01-27T03:33:05.422Z,1.07
2019-01-27T03:35:36.781Z,0.98
2019-01-27T03:38:10.000Z,0.98
2019-01-27T03:40:41.400Z,1.06
2019-01-27T03:43:12.880Z,1.05
2019-01-27T03:45:46.046Z,1.03
2019-01-27T03:48:17.837Z,1.06
2019-01-27T03:50:49.234Z,0.99
2019-01-27T03:53:20.683Z,1.07
2019-01-27T03:55:52.075Z,1.02
2019-01-27T03:58:24.480Z,1.05
2019-01-27T04:00:55.804Z,1.05
2019-01-27T04:03:27.238Z,1.02
2019-01-27T04:06:00.274Z,1.07
2019-01-27T04:08:31.835Z,1.07
2019-01-27T04:11:03.244Z,1.08
2019-01-27T04:13:34.676Z,0.96
2019-01-27T04:16:06.231Z,0.86
2019-01-27T04:18:37.800Z,0.82
2019-01-27T04:21:09.211Z,0.94
2019-01-27T04:23:40.684Z,0.91
2019-01-27T04:26:12.085Z,0.98
2019-01-27T04:28:43.526Z,1.02
2019-01-27T04:31:14.912Z,0.98
2019-01-27T04:33:46.347Z,1.00
2019-01-27T04:36:17.767Z,1.08
2019-01-27T04:38:49.219Z,1.01
2019-01-27T04:41:20.670Z,0.85
2019-01-27T04:43:52.007Z,1.11
2019-01-27T04:46:23.417Z,1.15
2019-01-27T04:48:56.353Z,1.19
2019-01-27T04:51:27.753Z,1.36
2019-01-27T04:53:59.160Z,1.32
2019-01-27T04:56:30.579Z,1.32
2019-01-27T04:59:01.936Z,1.24
2019-01-27T05:01:33.261Z,1.46
2019-01-27T05:04:17.327Z,1.43
2019-01-27T05:06:48.784Z,1.40
2019-01-27T05:09:20.204Z,1.39
2019-01-27T05:11:51.595Z,1.53
2019-01-27T05:14:23.035Z,1.50
2019-01-27T05:16:54.467Z,1.45
2019-01-27T05:19:25.902Z,1.46
2019-01-27T05:21:57.324Z,1.53
2019-01-27T05:24:30.350Z,1.61
2019-01-27T05:27:04.099Z,1.70
2019-01-27T05:29:35.533Z,1.77
2019-01-27T05:32:06.877Z,1.84
2019-01-27T05:34:38.320Z,1.94
2019-01-27T05:37:09.746Z,1.91
2019-01-27T05:39:42.274Z,1.97
2019-01-27T05:42:13.672Z,1.99
2019-01-27T05:44:45.047Z,2.09
2019-01-27T05:47:16.357Z,2.03
2019-01-27T05:49:47.809Z,2.08
2019-01-27T05:52:19.205Z,2.14
2019-01-27T05:54:50.719Z,2.10
2019-01-27T05:57:22.136Z,2.22
2019-01-27T05:59:56.359Z,2.05
2019-01-27T06:02:27.763Z,2.06
2019-01-27T06:04:59.211Z,2.18
2019-01-27T06:07:30.624Z,2.16
2019-01-27T06:10:02.081Z,2.16
2019-01-27T06:12:35.085Z,2.29
2019-01-27T06:15:08.196Z,2.38
2019-01-27T06:17:39.607Z,2.32
2019-01-27T06:20:13.019Z,2.28
2019-01-27T06:22:47.221Z,2.37
2019-01-27T06:25:18.675Z,2.48
2019-01-27T06:27:50.098Z,2.45
2019-01-27T06:30:23.925Z,2.44
2019-01-27T06:33:22.562Z,2.37
2019-01-27T06:35:54.009Z,2.47
2019-01-27T06:38:25.499Z,2.55
2019-01-27T06:40:56.941Z,2.64
2019-01-27T06:43:28.336Z,2.56
2019-01-27T06:46:00.189Z,2.64
2019-01-27T06:48:31.601Z,2.79
2019-01-27T06:51:03.157Z,2.82
2019-01-27T06:53:37.339Z,2.81
2019-01-27T06:56:08.945Z,2.77
2019-01-27T06:58:57.899Z,2.84
2019-01-27T07:01:38.117Z,2.80
2019-01-27T07:04:31.445Z,2.84
2019-01-27T07:07:36.936Z,2.90
2019-01-27T07:10:39.382Z,2.76
2019-01-27T07:13:28.140Z,2.86
2019-01-27T07:16:13.253Z,2.65
2019-01-27T07:19:03.575Z,2.61
2019-01-27T07:21:50.971Z,2.52
2019-01-27T07:24:44.157Z,2.29
2019-01-27T07:27:32.934Z,2.17
2019-01-27T07:30:25.962Z,2.41
2019-01-27T07:33:22.493Z,2.61
2019-01-27T07:36:04.646Z,2.54
2019-01-27T07:38:48.688Z,2.68
2019-01-27T07:41:37.527Z,2.65
2019-01-27T07:44:28.828Z,2.70
2019-01-27T07:47:08.888Z,2.69
2019-01-27T07:50:11.266Z,2.66
2019-01-27T07:52:58.576Z,2.55
2019-01-27T07:55:55.384Z,2.52
2019-01-27T07:58:35.822Z,2.66
2019-01-27T08:01:23.481Z,2.37
2019-01-27T08:04:24.217Z,2.45
2019-01-27T08:07:08.314Z,2.37
2019-01-27T08:09:46.926Z,2.43
2019-01-27T08:12:30.960Z,2.73
2019-01-27T08:15:36.417Z,2.65
2019-01-27T08:18:29.683Z,2.67
2019-01-27T08:21:16.702Z,2.68
2019-01-27T08:24:02.777Z,3.06
2019-01-27T08:26:44.487Z,3.85
2019-01-27T08:29:27.175Z,3.48
2019-01-27T08:32:32.491Z,3.22
2019-01-27T08:35:18.973Z,3.27
2019-01-27T08:38:03.585Z,3.32
2019-01-27T08:40:41.908Z,3.33
2019-01-27T08:43:38.351Z,3.30
2019-01-27T08:46:24.339Z,3.48
2019-01-27T08:48:55.754Z,3.76
2019-01-27T08:51:27.241Z,3.81
2019-01-27T08:53:58.761Z,3.80
2019-01-27T08:56:30.212Z,3.83
2019-01-27T08:59:02.866Z,3.72
2019-01-27T09:02:08.383Z,3.64
2019-01-27T09:05:10.752Z,3.57
2019-01-27T09:08:10.997Z,3.60
2019-01-27T09:10:54.430Z,3.84
2019-01-27T09:13:41.114Z,3.72
2019-01-27T09:16:37.184Z,3.92
2019-01-27T09:19:39.489Z,4.00
2019-01-27T09:22:34.478Z,4.20
2019-01-27T09:25:23.590Z,4.40
2019-01-27T09:28:17.861Z,4.35
2019-01-27T09:31:11.678Z,4.57
2019-01-27T09:33:54.354Z,4.40
2019-01-27T09:36:43.338Z,4.49
2019-01-27T09:39:32.528Z,4.54
2019-01-27T09:42:21.487Z,4.36
2019-01-27T09:45:14.165Z,4.35
2019-01-27T09:47:55.063Z,4.39
2019-01-27T09:50:38.353Z,4.53
2019-01-27T09:53:34.478Z,4.54
2019-01-27T09:56:21.663Z,4.60
2019-01-27T09:59:10.451Z,4.66
2019-01-27T10:02:15.703Z,4.59
2019-01-27T10:04:55.119Z,4.64
2019-01-27T10:07:52.880Z,4.96
2019-01-27T10:10:43.305Z,4.97
2019-01-27T10:13:34.354Z,5.04
2019-01-27T10:16:22.606Z,5.08
2019-01-27T10:19:15.549Z,5.27
2019-01-27T10:21:55.201Z,5.30
2019-01-27T10:24:45.798Z,5.35
2019-01-27T10:27:39.168Z,5.26
